Time;durP1;ratioP1;P1;durP2;ratioP2;P2;SDS_P1;SDS_P2;PMS_P1;PMS_P2;Temp;Humidity;BMP_temperature;BMP_pressure;BME280_temperature;BME280_humidity;BME280_pressure;Samples;Min_cycle;Max_cycle;Signal;HPM_P1;HPM_P2
2023/01/06 00:01:15;;;;;;;9.32;3.53;;;11.60;99.90;;;;;;5040498;28;20040;-64
2023/01/06 00:03:41;;;;;;;9.80;3.20;;;11.70;99.90;;;;;;5044062;28;20515;-64
2023/01/06 00:06:10;;;;;;;8.30;3.17;;;11.70;99.90;;;;;;5043284;28;20146;-64
2023/01/06 00:08:36;;;;;;;7.00;3.22;;;11.70;99.90;;;;;;5043592;28;20396;-64
2023/01/06 00:11:07;;;;;;;7.78;3.47;;;11.60;99.90;;;;;;5041462;28;20029;-64
2023/01/06 00:13:32;;;;;;;6.63;3.22;;;11.50;99.90;;;;;;5040076;28;20040;-64
2023/01/06 00:16:03;;;;;;;8.25;3.08;;;11.40;99.90;;;;;;5040971;28;20037;-64
2023/01/06 00:18:28;;;;;;;8.15;2.70;;;11.50;99.90;;;;;;5047543;28;20033;-64
2023/01/06 00:20:57;;;;;;;8.27;2.45;;;11.50;99.90;;;;;;5046744;28;20041;-64
2023/01/06 00:23:23;;;;;;;8.35;2.88;;;11.50;99.90;;;;;;5045971;28;20159;-64
2023/01/06 00:25:50;;;;;;;8.98;3.00;;;11.60;99.90;;;;;;5047173;28;20145;-64
2023/01/06 00:28:15;;;;;;;4.97;2.70;;;11.50;99.90;;;;;;5047142;28;20036;-64
2023/01/06 00:30:41;;;;;;;8.07;3.03;;;11.40;99.90;;;;;;5041982;28;20732;-64
2023/01/06 00:33:06;;;;;;;7.95;2.63;;;11.30;99.90;;;;;;5044855;28;21733;-63
2023/01/06 00:35:32;;;;;;;7.97;3.00;;;11.40;99.90;;;;;;5046941;28;20419;-64
2023/01/06 00:37:58;;;;;;;4.45;2.40;;;11.30;99.90;;;;;;5025839;28;20058;-63
2023/01/06 00:40:23;;;;;;;6.30;2.50;;;11.20;99.90;;;;;;5045817;28;20102;-64
2023/01/06 00:42:49;;;;;;;9.23;2.60;;;11.10;99.90;;;;;;5048787;28;20523;-64
2023/01/06 00:45:14;;;;;;;7.93;2.40;;;11.10;99.90;;;;;;5055212;28;20032;-64
2023/01/06 00:47:40;;;;;;;8.18;2.20;;;11.10;99.90;;;;;;5048013;28;20441;-64
2023/01/06 00:50:06;;;;;;;7.90;2.83;;;11.10;99.90;;;;;;5046934;28;20094;-64
2023/01/06 00:52:33;;;;;;;8.65;2.60;;;11.20;99.90;;;;;;5051068;28;20024;-64
2023/01/06 00:54:58;;;;;;;7.38;2.25;;;11.20;99.90;;;;;;5054235;28;20032;-64
2023/01/06 00:57:24;;;;;;;5.78;2.05;;;11.20;99.90;;;;;;5028446;28;20029;-64
2023/01/06 00:59:50;;;;;;;5.30;2.00;;;11.10;99.90;;;;;;5046085;28;20406;-64
2023/01/06 01:02:15;;;;;;;4.55;2.25;;;11.00;99.90;;;;;;5046506;28;20051;-64
2023/01/06 01:04:41;;;;;;;5.63;2.35;;;11.00;99.90;;;;;;5047393;28;20037;-64
2023/01/06 01:07:07;;;;;;;5.82;2.17;;;11.20;99.90;;;;;;5044032;28;20044;-64
2023/01/06 01:09:32;;;;;;;5.00;2.35;;;11.20;99.90;;;;;;5046526;28;20515;-64
2023/01/06 01:12:11;;;;;;;6.38;2.50;;;11.10;99.90;;;;;;5044506;28;20709;-64
2023/01/06 01:14:46;;;;;;;9.68;2.67;;;11.10;99.90;;;;;;5046171;28;20120;-64
2023/01/06 01:17:14;;;;;;;7.28;2.17;;;11.10;99.90;;;;;;5045823;28;20527;-64
2023/01/06 01:19:40;;;;;;;6.28;2.45;;;11.20;99.90;;;;;;5046662;28;20033;-64
2023/01/06 01:22:07;;;;;;;4.72;2.08;;;11.20;99.90;;;;;;5044669;28;20041;-64
2023/01/06 01:24:33;;;;;;;5.10;2.10;;;11.20;99.90;;;;;;5050242;28;20086;-64
2023/01/06 01:26:58;;;;;;;3.42;2.00;;;11.20;99.90;;;;;;5018951;28;20514;-64
2023/01/06 01:29:25;;;;;;;5.15;2.20;;;11.20;99.90;;;;;;5034093;28;20543;-64
2023/01/06 01:31:51;;;;;;;5.82;2.05;;;11.10;99.90;;;;;;5043598;28;20492;-64
2023/01/06 01:34:17;;;;;;;5.72;1.98;;;11.20;99.90;;;;;;5041179;28;20074;-64
2023/01/06 01:36:45;;;;;;;5.18;1.95;;;11.20;99.90;;;;;;5044043;28;20124;-64
2023/01/06 01:39:12;;;;;;;6.78;2.08;;;11.20;99.90;;;;;;5042160;28;20041;-64
2023/01/06 01:41:38;;;;;;;5.40;2.08;;;11.10;99.90;;;;;;5025220;28;20034;-64
2023/01/06 01:44:41;;;;;;;4.32;1.80;;;11.30;99.90;;;;;;5007323;28;20037;-64
2023/01/06 01:47:08;;;;;;;4.40;1.00;;;11.20;99.90;;;;;;5034856;28;20098;-64
2023/01/06 01:49:37;;;;;;;6.28;1.85;;;11.30;99.90;;;;;;5028628;28;20060;-64
2023/01/06 01:52:04;;;;;;;5.20;1.63;;;11.40;99.90;;;;;;5042748;28;20033;-64
2023/01/06 01:54:33;;;;;;;4.85;1.70;;;11.40;99.90;;;;;;5046558;28;20029;-64
2023/01/06 01:57:22;;;;;;;5.22;1.45;;;11.40;99.90;;;;;;5045130;28;20076;-64
2023/01/06 01:59:48;;;;;;;3.78;1.70;;;11.40;99.90;;;;;;5044056;28;20060;-64
2023/01/06 02:02:16;;;;;;;6.00;1.77;;;11.50;99.90;;;;;;5044630;28;20128;-64
2023/01/06 02:04:44;;;;;;;6.57;1.55;;;11.30;99.90;;;;;;5046985;28;20037;-64
2023/01/06 02:07:11;;;;;;;3.83;1.60;;;11.40;99.90;;;;;;5026108;28;20577;-64
2023/01/06 02:09:55;;;;;;;6.05;1.70;;;11.30;99.90;;;;;;5045403;28;20132;-64
2023/01/06 02:12:21;;;;;;;2.67;1.35;;;11.30;99.90;;;;;;5043292;28;20087;-64
2023/01/06 02:14:46;;;;;;;5.72;2.05;;;11.30;99.90;;;;;;5044272;28;20033;-64
2023/01/06 02:17:30;;;;;;;4.53;1.67;;;11.40;99.90;;;;;;5045128;28;20041;-64
2023/01/06 02:20:45;;;;;;;4.78;1.45;;;11.30;99.90;;;;;;5044577;28;20045;-64
2023/01/06 02:23:22;;;;;;;6.18;1.90;;;11.20;99.90;;;;;;4955080;28;20081;-65
2023/01/06 02:26:12;;;;;;;6.30;1.65;;;11.20;99.90;;;;;;4970024;28;20030;-64
2023/01/06 02:29:27;;;;;;;6.38;1.65;;;11.00;99.90;;;;;;5026772;28;20562;-64
2023/01/06 02:32:15;;;;;;;6.43;2.10;;;11.00;99.90;;;;;;5042563;28;20037;-64
2023/01/06 02:34:59;;;;;;;5.07;1.60;;;11.00;99.90;;;;;;5044499;28;20396;-64
2023/01/06 02:37:35;;;;;;;2.80;1.30;;;10.90;99.90;;;;;;5022260;28;20075;-64
2023/01/06 02:40:18;;;;;;;7.38;1.75;;;11.00;99.90;;;;;;5041999;28;20732;-64
2023/01/06 02:43:06;;;;;;;6.50;1.90;;;11.10;99.90;;;;;;5022391;28;20184;-64
2023/01/06 02:45:35;;;;;;;5.38;1.58;;;11.00;99.90;;;;;;5008065;28;20041;-64
2023/01/06 02:48:27;;;;;;;7.53;1.83;;;11.10;99.90;;;;;;5015452;28;20064;-64
2023/01/06 02:51:12;;;;;;;4.18;1.63;;;11.10;99.90;;;;;;5042204;28;20100;-64
2023/01/06 02:53:56;;;;;;;5.57;1.75;;;11.20;99.90;;;;;;5044745;28;20448;-64
2023/01/06 02:56:24;;;;;;;;;;;11.10;99.90;;;;;;5043857;28;20114;-64
2023/01/06 02:59:03;;;;;;;7.03;1.75;;;11.10;99.90;;;;;;5043858;28;19920;-64
2023/01/06 03:01:39;;;;;;;5.00;1.70;;;11.20;99.90;;;;;;5034897;28;20055;-64
2023/01/06 03:04:09;;;;;;;7.07;1.95;;;11.30;99.90;;;;;;5042367;28;20675;-64
2023/01/06 03:06:43;;;;;;;4.43;1.55;;;11.30;99.90;;;;;;5038337;28;20030;-64
2023/01/06 03:09:11;;;;;;;6.65;2.05;;;11.30;99.90;;;;;;5043450;28;20596;-64
2023/01/06 03:11:38;;;;;;;5.50;1.55;;;11.30;99.90;;;;;;5036838;28;20103;-64
2023/01/06 03:14:13;;;;;;;6.78;1.80;;;11.20;99.90;;;;;;5042155;28;20037;-64
2023/01/06 03:16:38;;;;;;;6.18;1.55;;;11.20;99.90;;;;;;5044685;28;20045;-64
2023/01/06 03:19:04;;;;;;;5.65;1.60;;;11.20;99.90;;;;;;5024016;28;20392;-64
2023/01/06 03:21:34;;;;;;;8.70;1.80;;;11.10;99.90;;;;;;5047707;28;20111;-64
2023/01/06 03:24:00;;;;;;;6.53;1.42;;;11.10;99.90;;;;;;5044616;28;20040;-64
2023/01/06 03:26:26;;;;;;;3.67;1.60;;;11.20;99.90;;;;;;5042906;28;20051;-64
2023/01/06 03:28:52;;;;;;;5.40;1.42;;;11.10;99.90;;;;;;5043089;28;20396;-64
2023/01/06 03:31:33;;;;;;;4.50;1.42;;;11.00;99.90;;;;;;5042039;28;20037;-64
2023/01/06 03:34:16;;;;;;;4.80;1.65;;;11.00;99.90;;;;;;5043383;28;20045;-64
2023/01/06 03:36:53;;;;;;;3.38;1.25;;;11.00;99.90;;;;;;5041738;28;20037;-64
2023/01/06 03:39:34;;;;;;;3.70;1.33;;;11.00;99.90;;;;;;5046171;28;20496;-64
2023/01/06 03:45:08;;;;;;;4.68;1.20;;;11.00;99.90;;;;;;5053040;28;20087;-64
2023/01/06 03:47:54;;;;;;;6.15;1.58;;;11.00;99.90;;;;;;5049751;28;20122;-64
2023/01/06 03:50:31;;;;;;;3.90;1.25;;;11.00;99.90;;;;;;5050633;28;20037;-64
2023/01/06 03:53:23;;;;;;;6.07;1.50;;;11.00;99.90;;;;;;5052093;28;20037;-64
2023/01/06 03:55:56;;;;;;;4.00;1.08;;;11.10;99.90;;;;;;5032180;28;20033;-64
2023/01/06 03:58:23;;;;;;;6.80;1.45;;;11.10;99.90;;;;;;5043079;28;20044;-64
2023/01/06 04:00:50;;;;;;;5.05;1.67;;;11.20;99.90;;;;;;5024945;28;20519;-64
2023/01/06 04:03:16;;;;;;;5.97;1.58;;;11.10;99.90;;;;;;5042819;28;20065;-64
2023/01/06 04:05:41;;;;;;;4.70;1.00;;;11.20;99.90;;;;;;5040204;28;20174;-65
2023/01/06 04:08:07;;;;;;;5.28;1.20;;;11.10;99.90;;;;;;5040700;28;20090;-64
2023/01/06 04:10:33;;;;;;;5.60;1.38;;;11.10;99.90;;;;;;5042833;28;20029;-64
2023/01/06 04:12:58;;;;;;;4.82;1.42;;;11.00;99.90;;;;;;5043501;28;20574;-64
2023/01/06 04:15:28;;;;;;;3.92;1.23;;;11.10;99.90;;;;;;5042517;28;20503;-65
2023/01/06 04:17:54;;;;;;;11.57;1.65;;;11.10;99.90;;;;;;5043365;28;20082;-65
2023/01/06 04:20:23;;;;;;;8.30;1.08;;;11.20;99.90;;;;;;5042192;28;20505;-64
2023/01/06 04:22:48;;;;;;;6.32;1.38;;;11.20;99.90;;;;;;5039801;28;20037;-64
2023/01/06 04:25:14;;;;;;;2.90;1.30;;;11.10;99.90;;;;;;5042308;28;20032;-64
2023/01/06 04:27:41;;;;;;;4.50;1.08;;;11.10;99.90;;;;;;5043228;28;20033;-64
2023/01/06 04:30:07;;;;;;;2.97;1.10;;;11.20;99.90;;;;;;5036436;28;20037;-64
2023/01/06 04:32:32;;;;;;;4.85;1.25;;;11.30;99.90;;;;;;5023168;28;20025;-64
2023/01/06 04:34:58;;;;;;;4.25;1.00;;;11.20;99.90;;;;;;5021083;28;20025;-64
2023/01/06 04:37:23;;;;;;;2.42;1.20;;;11.20;99.90;;;;;;5039963;28;20104;-64
2023/01/06 04:39:49;;;;;;;3.78;1.20;;;11.10;99.90;;;;;;5037174;28;20041;-64
2023/01/06 04:42:15;;;;;;;5.85;1.10;;;11.00;99.90;;;;;;5040216;28;20041;-64
2023/01/06 04:44:41;;;;;;;3.60;1.02;;;11.10;99.90;;;;;;5041903;28;20503;-64
2023/01/06 04:47:07;;;;;;;4.25;1.17;;;11.10;99.90;;;;;;5041361;28;20114;-64
2023/01/06 04:49:33;;;;;;;4.10;1.00;;;11.10;99.90;;;;;;5024684;28;20036;-64
2023/01/06 04:51:58;;;;;;;2.97;1.10;;;11.20;99.90;;;;;;5043159;28;20037;-64
2023/01/06 04:54:24;;;;;;;3.55;1.20;;;11.30;99.90;;;;;;5049484;28;20033;-64
2023/01/06 04:56:49;;;;;;;4.43;1.20;;;11.40;99.90;;;;;;5041352;28;20037;-64
2023/01/06 04:59:15;;;;;;;6.13;1.33;;;11.30;99.90;;;;;;5042888;28;20044;-64
2023/01/06 05:01:40;;;;;;;2.17;0.90;;;11.20;99.90;;;;;;5048082;28;20040;-64
2023/01/06 05:04:06;;;;;;;4.40;1.08;;;11.30;99.90;;;;;;5030536;28;20135;-64
2023/01/06 05:06:32;;;;;;;2.03;1.00;;;11.30;99.90;;;;;;5046512;28;20040;-64
2023/01/06 05:08:58;;;;;;;3.17;1.08;;;11.40;99.90;;;;;;5046275;28;20029;-64
2023/01/06 05:11:25;;;;;;;6.75;0.90;;;11.40;99.90;;;;;;5044330;28;20029;-64
2023/01/06 05:13:52;;;;;;;8.23;1.52;;;11.40;99.90;;;;;;5047377;28;20029;-64
2023/01/06 05:16:22;;;;;;;4.30;1.00;;;11.30;99.90;;;;;;5028246;28;20067;-64
2023/01/06 05:18:47;;;;;;;3.08;0.95;;;11.20;99.90;;;;;;5046465;28;20067;-64
2023/01/06 05:21:13;;;;;;;4.63;1.08;;;11.20;99.90;;;;;;5043916;28;20033;-64
2023/01/06 05:23:39;;;;;;;3.80;1.20;;;11.30;99.90;;;;;;5051018;28;20047;-64
2023/01/06 05:26:05;;;;;;;3.88;1.17;;;11.40;99.90;;;;;;5044089;28;20515;-64
2023/01/06 05:28:31;;;;;;;3.33;1.15;;;11.40;99.90;;;;;;5046204;28;20044;-64
2023/01/06 05:31:03;;;;;;;5.90;1.48;;;11.40;99.90;;;;;;5037302;28;20040;-64
2023/01/06 05:33:30;;;;;;;2.63;0.90;;;11.30;99.90;;;;;;5044913;28;20653;-64
2023/01/06 05:36:07;;;;;;;4.55;1.60;;;11.20;99.90;;;;;;5042992;28;20745;-64
2023/01/06 05:38:33;;;;;;;4.55;1.00;;;11.30;99.90;;;;;;5046356;28;20041;-64
2023/01/06 05:40:59;;;;;;;5.57;1.20;;;11.30;99.90;;;;;;5043753;28;20300;-64
2023/01/06 05:43:25;;;;;;;2.20;1.00;;;11.30;99.90;;;;;;5027650;28;20037;-64
2023/01/06 05:45:51;;;;;;;3.67;1.27;;;11.30;99.90;;;;;;5033357;28;20041;-64
2023/01/06 05:48:18;;;;;;;3.50;1.23;;;11.20;99.90;;;;;;5041734;28;20029;-64
2023/01/06 05:50:43;;;;;;;2.72;1.13;;;11.30;99.90;;;;;;5027642;28;20342;-64
2023/01/06 05:53:09;;;;;;;4.60;1.40;;;11.40;99.90;;;;;;5031504;28;20079;-64
2023/01/06 05:55:34;;;;;;;4.70;1.25;;;11.30;99.90;;;;;;5027577;28;20116;-64
2023/01/06 05:58:00;;;;;;;4.55;1.30;;;11.20;99.90;;;;;;5027239;28;20049;-64
2023/01/06 06:00:25;;;;;;;3.83;1.17;;;11.20;99.90;;;;;;5026492;28;20043;-64
2023/01/06 06:02:51;;;;;;;6.03;1.40;;;11.20;99.90;;;;;;5022710;28;20037;-64
2023/01/06 06:05:17;;;;;;;3.13;1.10;;;11.20;99.90;;;;;;5025581;28;20025;-64
2023/01/06 06:07:42;;;;;;;3.97;1.35;;;11.10;99.90;;;;;;5025596;28;20107;-64
2023/01/06 06:10:08;;;;;;;2.20;1.20;;;11.00;99.90;;;;;;5030925;28;20025;-64
2023/01/06 06:12:34;;;;;;;3.58;1.33;;;11.00;99.90;;;;;;5045386;28;20040;-64
2023/01/06 06:15:00;;;;;;;4.68;1.30;;;11.00;99.90;;;;;;5042940;28;20025;-64
2023/01/06 06:17:26;;;;;;;3.65;1.27;;;11.00;99.90;;;;;;5041367;28;20454;-64
2023/01/06 06:19:51;;;;;;;6.82;1.55;;;11.20;99.90;;;;;;5044990;28;20040;-64
2023/01/06 06:22:17;;;;;;;4.40;1.30;;;11.20;99.90;;;;;;5027119;28;20032;-64
2023/01/06 06:24:42;;;;;;;5.70;1.30;;;11.10;99.90;;;;;;5044228;28;20041;-64
2023/01/06 06:27:08;;;;;;;1.58;1.00;;;11.20;99.90;;;;;;5042761;28;20037;-64
2023/01/06 06:29:33;;;;;;;2.33;0.98;;;11.00;99.90;;;;;;5042430;28;20041;-64
2023/01/06 06:31:59;;;;;;;4.90;1.83;;;11.10;99.90;;;;;;5043859;28;20060;-64
2023/01/06 06:34:24;;;;;;;2.10;0.95;;;11.10;99.90;;;;;;5047871;28;20036;-64
2023/01/06 06:36:50;;;;;;;2.53;1.15;;;11.00;99.90;;;;;;5040492;28;20037;-64
2023/01/06 06:39:16;;;;;;;6.25;1.35;;;11.00;99.90;;;;;;5044222;28;20090;-64
2023/01/06 06:41:41;;;;;;;2.05;1.00;;;11.20;99.90;;;;;;5049172;28;20496;-64
2023/01/06 06:44:07;;;;;;;5.10;1.23;;;11.10;99.90;;;;;;5039139;28;20047;-64
2023/01/06 06:46:32;;;;;;;3.17;1.05;;;11.10;99.90;;;;;;5041983;28;20037;-64
2023/01/06 06:48:58;;;;;;;2.72;1.10;;;11.20;99.90;;;;;;5043435;28;20056;-64
2023/01/06 06:51:23;;;;;;;2.38;0.90;;;11.20;99.90;;;;;;5042404;28;20063;-64
2023/01/06 06:53:49;;;;;;;4.07;1.25;;;11.20;99.90;;;;;;5039049;28;20048;-64
2023/01/06 06:56:16;;;;;;;3.67;1.00;;;11.10;99.90;;;;;;5045484;28;20074;-64
2023/01/06 06:58:42;;;;;;;2.45;0.80;;;11.20;99.90;;;;;;5043736;28;20427;-63
2023/01/06 07:01:13;;;;;;;5.45;0.90;;;11.20;99.90;;;;;;5024236;28;20036;-63
2023/01/06 07:03:39;;;;;;;3.25;1.05;;;11.20;99.90;;;;;;5040247;28;20071;-64
2023/01/06 07:06:07;;;;;;;3.85;1.10;;;11.10;99.90;;;;;;5043599;28;20057;-63
2023/01/06 07:08:33;;;;;;;2.97;1.23;;;11.10;99.90;;;;;;5044564;28;20029;-64
2023/01/06 07:10:59;;;;;;;4.47;0.90;;;11.10;99.90;;;;;;5042216;28;20098;-63
2023/01/06 07:13:24;;;;;;;2.63;0.80;;;11.00;99.90;;;;;;5044496;28;20032;-63
2023/01/06 07:15:50;;;;;;;2.80;0.90;;;11.10;99.90;;;;;;5043913;28;20662;-63
2023/01/06 07:18:16;;;;;;;3.85;0.90;;;11.20;99.90;;;;;;5042072;28;20435;-63
2023/01/06 07:20:46;;;;;;;2.80;1.00;;;11.20;99.90;;;;;;5042104;28;20029;-63
2023/01/06 07:23:11;;;;;;;4.32;0.82;;;11.30;99.90;;;;;;5042374;28;20067;-63
2023/01/06 07:25:37;;;;;;;1.88;1.00;;;11.20;99.90;;;;;;5021524;28;20087;-63
2023/01/06 07:28:04;;;;;;;1.60;1.05;;;11.30;99.90;;;;;;5027126;28;20107;-63
2023/01/06 07:30:31;;;;;;;3.45;1.00;;;11.20;99.90;;;;;;5036807;28;20499;-63
2023/01/06 07:32:56;;;;;;;1.77;1.27;;;11.20;99.90;;;;;;5039236;28;20120;-63
2023/01/06 07:35:22;;;;;;;2.60;1.05;;;11.10;99.90;;;;;;5023923;28;20477;-63
2023/01/06 07:37:47;;;;;;;4.90;1.10;;;11.10;99.90;;;;;;5041329;28;20492;-63
2023/01/06 07:40:13;;;;;;;1.85;1.00;;;11.20;99.90;;;;;;5021587;28;20818;-64
2023/01/06 07:42:39;;;;;;;2.78;1.02;;;11.30;99.90;;;;;;5018779;28;20520;-63
2023/01/06 07:45:06;;;;;;;3.63;1.10;;;11.30;99.90;;;;;;5017217;28;20340;-63
2023/01/06 07:47:32;;;;;;;1.70;1.00;;;11.30;99.90;;;;;;5034770;28;20404;-63
2023/01/06 07:49:57;;;;;;;3.10;1.20;;;11.40;99.90;;;;;;5038859;28;20048;-63
2023/01/06 07:52:23;;;;;;;2.72;1.15;;;11.30;99.90;;;;;;5036875;28;20044;-63
2023/01/06 07:54:48;;;;;;;3.38;1.10;;;11.30;99.90;;;;;;5017373;28;20037;-63
2023/01/06 07:57:14;;;;;;;3.63;0.82;;;11.30;99.90;;;;;;5039885;28;20047;-63
2023/01/06 07:59:39;;;;;;;1.92;0.90;;;11.20;99.90;;;;;;5042276;28;20041;-63
2023/01/06 08:02:05;;;;;;;2.00;0.93;;;11.20;99.90;;;;;;5040416;28;20037;-63
2023/01/06 08:04:33;;;;;;;1.90;0.82;;;11.20;99.90;;;;;;5041273;28;20045;-63
2023/01/06 08:07:00;;;;;;;3.97;1.00;;;11.30;99.90;;;;;;5039762;28;20040;-63
2023/01/06 08:09:26;;;;;;;2.00;0.95;;;11.30;99.90;;;;;;5040414;28;20492;-63
2023/01/06 08:11:51;;;;;;;2.38;0.93;;;11.30;99.90;;;;;;5041126;28;20060;-63
2023/01/06 08:14:17;;;;;;;1.60;0.90;;;11.30;99.90;;;;;;5042816;28;20505;-63
2023/01/06 08:16:43;;;;;;;1.25;0.75;;;11.30;99.90;;;;;;5041435;28;20591;-63
2023/01/06 08:19:08;;;;;;;2.58;0.90;;;11.40;99.90;;;;;;5039166;28;20033;-63
2023/01/06 08:21:34;;;;;;;2.03;0.90;;;11.40;99.90;;;;;;5042944;28;20078;-63
2023/01/06 08:23:59;;;;;;;4.82;1.25;;;11.30;99.90;;;;;;5042609;28;20392;-63
2023/01/06 08:26:25;;;;;;;2.70;0.90;;;11.30;99.90;;;;;;5040787;28;20037;-63
2023/01/06 08:28:52;;;;;;;1.95;1.00;;;11.40;99.90;;;;;;5042640;28;20033;-63
2023/01/06 08:31:19;;;;;;;2.15;0.93;;;11.40;99.90;;;;;;5038344;28;20417;-63
2023/01/06 08:33:46;;;;;;;2.78;1.10;;;11.50;99.90;;;;;;5043335;28;20049;-63
2023/01/06 08:36:15;;;;;;;3.28;1.08;;;11.40;99.90;;;;;;5049128;28;20045;-64
2023/01/06 08:38:40;;;;;;;7.07;1.48;;;11.50;99.90;;;;;;5044853;28;20048;-63
2023/01/06 08:41:07;;;;;;;2.92;1.00;;;11.50;99.90;;;;;;5044460;28;20056;-63
2023/01/06 08:43:33;;;;;;;1.25;0.90;;;11.60;99.90;;;;;;5052393;28;20120;-63
2023/01/06 08:46:03;;;;;;;2.80;1.13;;;11.60;99.90;;;;;;5038132;28;20147;-63
2023/01/06 08:48:29;;;;;;;2.70;1.10;;;11.50;99.90;;;;;;5018266;28;20549;-63
2023/01/06 08:50:56;;;;;;;2.15;0.98;;;11.50;99.90;;;;;;5030160;28;20049;-63
2023/01/06 08:53:22;;;;;;;3.50;1.20;;;11.50;99.90;;;;;;5041499;28;20136;-63
2023/01/06 08:55:48;;;;;;;4.22;0.93;;;11.50;99.90;;;;;;5044366;28;20477;-63
2023/01/06 08:58:13;;;;;;;3.28;1.27;;;11.60;99.90;;;;;;5029530;28;21642;-63
2023/01/06 09:00:41;;;;;;;2.67;1.00;;;11.60;99.90;;;;;;5021852;28;20136;-63
2023/01/06 09:03:07;;;;;;;6.82;1.58;;;11.50;99.90;;;;;;5021807;28;20540;-63
2023/01/06 09:05:33;;;;;;;2.08;1.00;;;11.60;99.90;;;;;;5025671;28;20029;-63
2023/01/06 09:07:58;;;;;;;1.98;1.20;;;11.60;99.90;;;;;;5016189;28;20132;-63
2023/01/06 09:10:24;;;;;;;2.15;1.00;;;11.50;99.90;;;;;;5018897;28;20265;-63
2023/01/06 09:12:50;;;;;;;2.92;1.00;;;11.50;99.90;;;;;;5020117;28;20037;-63
2023/01/06 09:15:16;;;;;;;3.60;1.10;;;11.40;99.90;;;;;;5021510;28;20047;-63
2023/01/06 09:17:41;;;;;;;4.93;1.65;;;11.50;99.90;;;;;;5023399;28;20128;-63
2023/01/06 09:20:08;;;;;;;2.28;1.00;;;11.60;99.90;;;;;;5028552;28;20045;-63
2023/01/06 09:22:34;;;;;;;2.35;1.30;;;11.50;99.90;;;;;;5021563;28;20403;-63
2023/01/06 09:24:59;;;;;;;3.05;1.52;;;11.40;99.90;;;;;;5040035;28;20034;-63
2023/01/06 09:27:25;;;;;;;4.10;1.40;;;11.40;99.90;;;;;;5020999;28;20424;-63
2023/01/06 09:29:50;;;;;;;2.30;1.30;;;11.60;99.90;;;;;;5024085;28;20377;-64
2023/01/06 09:32:16;;;;;;;2.28;1.20;;;11.50;99.90;;;;;;5020445;28;20128;-64
2023/01/06 09:34:41;;;;;;;4.40;1.10;;;11.50;99.90;;;;;;5026662;28;20076;-64
2023/01/06 09:37:07;;;;;;;2.47;1.30;;;11.50;99.90;;;;;;5021845;28;20038;-64
2023/01/06 09:39:33;;;;;;;2.15;1.30;;;11.50;99.90;;;;;;5023389;28;20041;-64
2023/01/06 09:42:22;;;;;;;3.15;1.30;;;11.40;99.90;;;;;;5019299;28;20026;-64
2023/01/06 09:45:04;;;;;;;1.63;1.00;;;11.40;99.90;;;;;;5044390;28;20040;-64
2023/01/06 09:47:36;;;;;;;2.63;1.40;;;11.50;99.90;;;;;;5007751;28;20556;-64
2023/01/06 09:50:13;;;;;;;3.03;1.20;;;11.60;99.90;;;;;;5025036;28;20045;-64
2023/01/06 09:52:44;;;;;;;2.33;1.50;;;11.60;99.90;;;;;;5026961;28;20400;-63
2023/01/06 09:55:24;;;;;;;2.80;1.50;;;11.50;99.90;;;;;;5037973;28;20040;-63
2023/01/06 09:57:55;;;;;;;3.25;1.55;;;11.50;99.90;;;;;;5039436;28;20040;-64
2023/01/06 10:00:38;;;;;;;1.40;1.15;;;11.50;99.90;;;;;;5038835;28;20043;-64
2023/01/06 10:03:04;;;;;;;;;;;11.60;99.90;;;;;;5042433;28;20055;-64
2023/01/06 10:05:57;;;;;;;2.58;1.30;;;11.60;99.90;;;;;;5040415;28;19924;-64
2023/01/06 10:08:43;;;;;;;2.83;1.25;;;11.40;99.90;;;;;;5042847;28;20477;-64
2023/01/06 10:11:21;;;;;;;2.17;1.40;;;11.40;99.90;;;;;;5041305;28;20493;-63
2023/01/06 10:13:46;;;;;;;2.63;1.70;;;11.50;99.90;;;;;;5044131;28;20082;-63
2023/01/06 10:16:28;;;;;;;3.30;2.20;;;11.50;99.90;;;;;;5034284;28;20033;-63
2023/01/06 10:19:12;;;;;;;5.05;2.33;;;11.50;99.90;;;;;;5024058;28;20045;-63
2023/01/06 10:22:10;;;;;;;3.72;1.85;;;11.50;99.90;;;;;;5043300;28;20486;-63
2023/01/06 10:25:09;;;;;;;4.63;1.80;;;11.60;99.90;;;;;;5041227;28;20677;-63
2023/01/06 10:27:38;;;;;;;2.47;1.40;;;11.50;99.90;;;;;;5040229;28;20032;-63
2023/01/06 10:30:26;;;;;;;2.38;2.00;;;11.60;99.90;;;;;;5040205;28;20032;-63
2023/01/06 10:32:51;;;;;;;6.57;2.00;;;11.70;99.90;;;;;;5040964;28;20040;-63
2023/01/06 10:35:21;;;;;;;2.42;1.95;;;11.70;99.90;;;;;;5043693;28;20042;-63
2023/01/06 10:37:48;;;;;;;3.47;2.25;;;11.70;99.90;;;;;;5042923;28;20044;-63
2023/01/06 10:40:17;;;;;;;4.53;2.33;;;11.80;99.90;;;;;;5039489;28;20040;-63
2023/01/06 10:42:59;;;;;;;3.40;2.13;;;11.70;99.90;;;;;;5043042;28;20025;-63
2023/01/06 10:45:37;;;;;;;5.45;2.17;;;11.80;99.90;;;;;;5039344;28;20052;-64
2023/01/06 10:48:06;;;;;;;3.00;2.00;;;11.90;99.90;;;;;;5045242;28;20477;-63
2023/01/06 10:50:35;;;;;;;4.63;2.08;;;11.90;99.90;;;;;;5041670;28;20053;-63
2023/01/06 10:53:01;;;;;;;3.25;2.00;;;11.90;99.90;;;;;;5043764;28;20484;-63
2023/01/06 10:55:42;;;;;;;3.53;2.00;;;12.00;99.90;;;;;;5034497;28;20069;-63
2023/01/06 10:58:34;;;;;;;3.15;1.73;;;12.00;99.90;;;;;;5016575;28;20038;-63
2023/01/06 11:01:11;;;;;;;3.83;1.85;;;12.00;99.90;;;;;;5017228;28;20040;-63
2023/01/06 11:03:41;;;;;;;4.55;1.73;;;11.90;99.90;;;;;;5039472;28;20040;-63
2023/01/06 11:06:14;;;;;;;2.97;1.90;;;12.00;99.90;;;;;;5040000;28;20124;-63
2023/01/06 11:08:40;;;;;;;3.72;1.98;;;12.20;99.90;;;;;;5039353;28;20055;-63
2023/01/06 11:11:12;;;;;;;3.20;1.88;;;12.10;99.90;;;;;;5037853;28;20043;-63
2023/01/06 11:13:38;;;;;;;4.95;2.13;;;12.00;99.90;;;;;;5040548;28;20755;-63
2023/01/06 11:16:18;;;;;;;3.80;1.73;;;12.00;99.90;;;;;;5044659;28;20037;-63
2023/01/06 11:19:03;;;;;;;3.35;2.35;;;12.10;99.90;;;;;;5013905;28;20046;-63
2023/01/06 11:21:45;;;;;;;4.15;2.20;;;12.10;99.90;;;;;;5027826;28;20052;-63
2023/01/06 11:24:17;;;;;;;3.05;2.00;;;12.10;99.90;;;;;;5044996;28;20044;-63
2023/01/06 11:26:48;;;;;;;4.15;2.13;;;12.10;99.90;;;;;;5040252;28;20303;-63
2023/01/06 11:29:36;;;;;;;3.55;2.22;;;12.10;99.90;;;;;;5038734;28;20036;-63
2023/01/06 11:32:12;;;;;;;4.15;2.10;;;12.10;99.90;;;;;;5036725;28;20021;-63
2023/01/06 11:34:37;;;;;;;4.03;2.17;;;12.20;99.90;;;;;;5021122;28;20524;-63
2023/01/06 11:37:04;;;;;;;4.30;2.30;;;12.20;99.90;;;;;;5002589;28;20036;-63
2023/01/06 11:39:35;;;;;;;5.03;2.47;;;12.20;99.90;;;;;;5022782;28;20080;-63
2023/01/06 11:42:10;;;;;;;3.03;1.90;;;12.30;99.90;;;;;;5025870;28;20083;-64
2023/01/06 11:44:41;;;;;;;4.25;2.00;;;12.30;99.90;;;;;;5020875;28;20500;-64
2023/01/06 11:47:19;;;;;;;6.28;2.42;;;12.40;99.90;;;;;;5011450;28;20041;-63
2023/01/06 11:49:51;;;;;;;1.85;1.63;;;12.50;99.90;;;;;;5043811;28;20033;-63
2023/01/06 11:52:16;;;;;;;5.28;1.95;;;12.50;99.90;;;;;;5020607;28;20041;-64
2023/01/06 11:54:42;;;;;;;2.22;1.70;;;12.50;99.90;;;;;;5048798;28;20051;-64
2023/01/06 11:57:15;;;;;;;5.22;1.67;;;12.40;99.90;;;;;;5041525;28;20120;-64
2023/01/06 12:00:26;;;;;;;4.32;2.05;;;12.40;99.90;;;;;;5042167;28;20045;-64
2023/01/06 12:03:18;;;;;;;2.90;1.60;;;12.40;99.90;;;;;;5001203;28;20033;-64
2023/01/06 12:06:03;;;;;;;3.13;1.60;;;12.50;99.90;;;;;;5007578;28;20033;-64
2023/01/06 12:08:50;;;;;;;4.72;1.70;;;12.60;99.90;;;;;;5041799;28;20637;-63
2023/01/06 12:11:31;;;;;;;2.42;1.27;;;12.60;99.90;;;;;;5040253;28;20459;-64
2023/01/06 12:13:57;;;;;;;2.65;1.48;;;12.60;99.90;;;;;;5046198;28;20768;-64
2023/01/06 12:16:36;;;;;;;3.75;1.40;;;12.50;99.90;;;;;;5047223;28;20029;-64
2023/01/06 12:19:09;;;;;;;4.22;1.60;;;12.50;99.90;;;;;;5044988;28;20029;-64
2023/01/06 12:21:35;;;;;;;6.20;1.50;;;12.40;99.90;;;;;;5048247;28;20029;-64
2023/01/06 12:24:05;;;;;;;2.25;1.55;;;12.40;99.90;;;;;;5051727;28;20037;-64
2023/01/06 12:26:31;;;;;;;2.40;1.30;;;12.50;99.90;;;;;;5045831;28;20450;-63
2023/01/06 12:28:58;;;;;;;3.78;1.48;;;12.50;99.90;;;;;;5048524;28;20040;-64
2023/01/06 12:31:56;;;;;;;3.38;1.40;;;12.50;99.90;;;;;;5046476;28;20420;-64
2023/01/06 12:34:28;;;;;;;3.83;1.50;;;12.50;99.90;;;;;;5041264;28;20465;-64
2023/01/06 12:37:06;;;;;;;2.58;1.50;;;12.70;99.90;;;;;;5045265;28;20029;-64
2023/01/06 12:39:34;;;;;;;6.05;2.10;;;12.70;99.90;;;;;;5045264;28;20045;-64
2023/01/06 12:42:12;;;;;;;3.28;1.80;;;12.80;99.90;;;;;;5043372;28;20133;-64
2023/01/06 12:44:49;;;;;;;4.53;1.55;;;12.80;99.90;;;;;;5044559;28;20049;-64
2023/01/06 12:47:43;;;;;;;3.50;1.17;;;12.90;99.90;;;;;;5039512;28;20358;-63
2023/01/06 12:50:33;;;;;;;5.85;1.25;;;12.90;99.90;;;;;;5036283;28;20033;-63
2023/01/06 12:53:29;;;;;;;1.77;0.98;;;12.80;99.90;;;;;;5043076;28;20041;-63
2023/01/06 12:56:28;;;;;;;3.03;1.10;;;13.00;99.90;;;;;;5043710;28;20142;-63
2023/01/06 12:59:11;;;;;;;2.78;1.20;;;13.10;99.90;;;;;;5035439;28;20079;-63
2023/01/06 13:01:45;;;;;;;4.95;1.13;;;13.10;99.90;;;;;;5044544;28;20033;-63
2023/01/06 13:04:45;;;;;;;2.17;1.20;;;13.10;99.90;;;;;;5045943;28;20100;-63
2023/01/06 13:07:18;;;;;;;3.58;1.40;;;13.10;99.90;;;;;;5045522;28;20025;-63
2023/01/06 13:10:02;;;;;;;;;;;13.00;99.90;;;;;;5028073;28;20048;-63